Time;durP1;ratioP1;P1;durP2;ratioP2;P2;SDS_P1;SDS_P2;PMS_P1;PMS_P2;Temp;Humidity;BMP_temperature;BMP_pressure;BME280_temperature;BME280_humidity;BME280_pressure;Samples;Min_cycle;Max_cycle;Signal;HPM_P1;HPM_P2
2021/12/24 00:00:44;;;;;;;5.53;4.90;;;7.70;99.90;;;;;;5061301;28;20621;-75
2021/12/24 00:03:13;;;;;;;7.73;7.23;;;7.70;99.90;;;;;;5062561;28;20236;-76
2021/12/24 00:05:40;;;;;;;5.43;4.93;;;7.70;99.90;;;;;;5062683;28;20195;-75
2021/12/24 00:08:07;;;;;;;6.23;5.73;;;7.70;99.90;;;;;;5062950;28;20208;-75
2021/12/24 00:10:36;;;;;;;7.40;6.80;;;7.70;99.90;;;;;;5062160;28;20201;-75
2021/12/24 00:13:06;;;;;;;8.20;7.50;;;7.70;99.90;;;;;;5062508;28;20241;-75
2021/12/24 00:18:24;;;;;;;6.47;4.60;;;7.70;99.90;;;;;;5060525;28;20224;-76
2021/12/24 00:37:16;;;;;;;4.30;3.90;;;8.00;99.90;;;;;;5062459;28;20573;-76
2021/12/24 00:39:50;;;;;;;4.07;3.63;;;8.10;99.90;;;;;;5059938;28;20195;-75
2021/12/24 00:42:17;;;;;;;5.17;4.77;;;8.10;99.90;;;;;;5071741;28;20300;-75
2021/12/24 00:44:44;;;;;;;8.77;8.10;;;8.10;99.90;;;;;;5067100;28;20197;-75
2021/12/24 00:47:11;;;;;;;9.53;8.83;;;8.10;99.90;;;;;;5056071;28;20202;-76
2021/12/24 00:49:39;;;;;;;11.00;10.20;;;8.00;99.90;;;;;;5064590;28;20692;-75
2021/12/24 00:52:21;;;;;;;9.57;8.80;;;8.10;99.90;;;;;;5056841;28;20202;-75
2021/12/24 00:55:06;;;;;;;8.50;7.90;;;8.10;99.90;;;;;;5064531;28;20292;-75
2021/12/24 00:57:34;;;;;;;9.93;8.90;;;8.10;99.90;;;;;;5060808;28;20267;-75
2021/12/24 01:00:01;;;;;;;8.40;7.77;;;8.20;99.90;;;;;;5065489;28;20200;-75
2021/12/24 01:02:28;;;;;;;8.27;7.77;;;8.20;99.90;;;;;;5061131;28;20655;-75
2021/12/24 01:04:57;;;;;;;8.77;8.17;;;8.20;99.90;;;;;;5060163;28;20204;-75
2021/12/24 01:07:24;;;;;;;11.77;10.97;;;8.30;99.90;;;;;;5058850;28;20193;-75
2021/12/24 01:09:51;;;;;;;12.10;11.07;;;8.30;99.90;;;;;;5065803;28;20282;-75
2021/12/24 01:12:18;;;;;;;10.13;9.53;;;8.30;99.90;;;;;;5059973;28;20193;-76
2021/12/24 01:14:47;;;;;;;8.73;8.03;;;8.30;99.90;;;;;;5065170;28;20197;-75
2021/12/24 01:17:27;;;;;;;5.00;3.77;;;8.40;99.90;;;;;;5061348;28;20216;-75
2021/12/24 01:19:59;;;;;;;6.30;5.70;;;8.40;99.90;;;;;;5060166;28;20577;-75
2021/12/24 01:23:04;;;;;;;10.73;10.03;;;8.50;99.90;;;;;;5065972;28;20328;-75
2021/12/24 01:25:32;;;;;;;4.20;3.80;;;8.50;99.90;;;;;;5060118;28;20540;-76
2021/12/24 01:28:24;;;;;;;6.67;6.17;;;8.60;99.90;;;;;;5057180;28;20213;-75
2021/12/24 01:39:11;;;;;;;9.43;8.73;;;8.80;99.90;;;;;;5053873;28;20759;-75
2021/12/24 01:44:26;;;;;;;6.13;5.67;;;8.90;99.90;;;;;;5059158;28;20215;-75
2021/12/24 01:46:57;;;;;;;4.43;4.03;;;8.90;99.90;;;;;;5059144;28;20195;-75
2021/12/24 01:49:24;;;;;;;11.87;10.97;;;8.90;99.90;;;;;;5064699;28;20195;-75
2021/12/24 01:51:52;;;;;;;11.60;10.90;;;8.90;99.90;;;;;;5059045;28;20820;-75
2021/12/24 01:54:21;;;;;;;11.73;11.03;;;8.90;99.90;;;;;;5056296;28;20754;-75
2021/12/24 01:56:49;;;;;;;11.83;11.03;;;9.00;99.90;;;;;;5064230;28;20195;-75
2021/12/24 01:59:16;;;;;;;11.57;10.87;;;8.90;99.90;;;;;;5066358;28;20226;-75
2021/12/24 02:01:44;;;;;;;11.50;10.80;;;8.90;99.90;;;;;;5051963;28;20199;-75
2021/12/24 02:04:13;;;;;;;11.33;10.63;;;8.90;99.90;;;;;;5060864;28;20231;-75
2021/12/24 02:06:42;;;;;;;11.27;10.57;;;8.90;99.90;;;;;;5057517;28;20237;-76
2021/12/24 02:09:09;;;;;;;11.50;10.70;;;8.90;99.90;;;;;;5070290;28;20252;-75
2021/12/24 02:11:40;;;;;;;11.50;10.70;;;8.90;99.90;;;;;;5058756;28;20206;-75
2021/12/24 02:14:10;;;;;;;11.50;10.80;;;8.90;99.90;;;;;;5062641;28;20224;-75
2021/12/24 02:30:37;;;;;;;11.60;10.90;;;8.80;99.90;;;;;;5058400;28;20539;-76
2021/12/24 02:33:05;;;;;;;10.87;10.27;;;8.70;99.90;;;;;;5061180;28;20214;-75
2021/12/24 02:35:33;;;;;;;11.13;10.43;;;8.60;99.90;;;;;;5055959;28;20245;-75
2021/12/24 02:38:03;;;;;;;11.20;10.50;;;8.60;99.90;;;;;;5058734;28;20219;-75
2021/12/24 02:40:31;;;;;;;10.70;10.00;;;8.50;99.90;;;;;;5052291;28;20201;-75
2021/12/24 02:42:59;;;;;;;11.40;10.70;;;8.50;99.90;;;;;;5063209;28;20222;-75
2021/12/24 02:45:28;;;;;;;10.97;10.37;;;8.50;99.90;;;;;;5061256;28;20222;-75
2021/12/24 02:48:14;;;;;;;11.40;10.70;;;8.50;99.90;;;;;;5055340;28;20577;-75
2021/12/24 02:56:23;;;;;;;10.90;10.30;;;8.40;99.90;;;;;;5042318;28;20237;-75
2021/12/24 02:58:50;;;;;;;11.20;10.40;;;8.40;99.90;;;;;;5053781;28;20297;-75
2021/12/24 03:01:20;;;;;;;11.03;10.33;;;8.40;99.90;;;;;;5053258;28;20194;-75
2021/12/24 03:03:48;;;;;;;11.03;10.43;;;8.30;99.90;;;;;;5060970;28;20284;-75
2021/12/24 03:06:18;;;;;;;11.50;10.80;;;8.40;99.90;;;;;;5062555;28;20195;-77
2021/12/24 03:08:47;;;;;;;11.90;11.10;;;8.30;99.90;;;;;;5064290;28;20209;-75
2021/12/24 03:11:14;;;;;;;11.90;11.20;;;8.40;99.90;;;;;;5065150;28;20286;-75
2021/12/24 03:13:42;;;;;;;11.67;10.97;;;8.40;99.90;;;;;;5057517;28;20215;-75
2021/12/24 03:16:10;;;;;;;11.70;10.90;;;8.40;99.90;;;;;;5055260;28;20211;-75
2021/12/24 03:18:39;;;;;;;11.80;11.00;;;8.40;99.90;;;;;;5062787;28;20720;-76
2021/12/24 03:21:10;;;;;;;11.83;11.03;;;8.40;99.90;;;;;;5068380;28;20203;-75
2021/12/24 03:23:41;;;;;;;12.10;11.20;;;8.40;99.90;;;;;;5060045;28;20218;-75
2021/12/24 03:26:11;;;;;;;11.70;10.90;;;8.40;99.90;;;;;;5074344;28;20285;-75
2021/12/24 03:28:38;;;;;;;11.77;11.07;;;8.40;99.90;;;;;;5062927;28;20743;-75
2021/12/24 03:31:06;;;;;;;12.10;11.30;;;8.40;99.90;;;;;;5065140;28;20194;-75
2021/12/24 03:33:35;;;;;;;12.20;11.30;;;8.40;99.90;;;;;;5067435;28;20222;-75
2021/12/24 03:36:03;;;;;;;11.80;11.10;;;8.40;99.90;;;;;;5063128;28;20233;-76
2021/12/24 03:38:30;;;;;;;12.20;11.37;;;8.40;99.90;;;;;;5063289;28;20211;-75
2021/12/24 03:40:57;;;;;;;11.83;11.00;;;8.40;99.90;;;;;;5072098;28;20216;-76
2021/12/24 03:43:26;;;;;;;11.90;11.10;;;8.40;99.90;;;;;;5064027;28;20683;-75
2021/12/24 03:46:00;;;;;;;12.00;11.30;;;8.40;99.90;;;;;;5063953;28;20197;-75
2021/12/24 03:48:41;;;;;;;12.10;11.33;;;8.40;99.90;;;;;;5064717;28;20194;-76
2021/12/24 03:51:24;;;;;;;12.00;11.30;;;8.40;99.90;;;;;;5062248;28;20202;-75
2021/12/24 03:56:37;;;;;;;12.23;11.20;;;8.40;99.90;;;;;;5062480;28;20599;-76
2021/12/24 03:59:07;;;;;;;12.00;11.30;;;8.40;99.90;;;;;;5062868;28;20302;-76
2021/12/24 04:01:52;;;;;;;12.50;11.60;;;8.40;99.90;;;;;;5064168;28;20210;-77
2021/12/24 04:04:39;;;;;;;11.73;11.03;;;8.40;99.90;;;;;;5058919;28;20226;-77
2021/12/24 04:07:15;;;;;;;11.93;11.13;;;8.40;99.90;;;;;;5065071;28;20690;-77
2021/12/24 04:10:27;;;;;;;12.07;11.13;;;8.40;99.90;;;;;;5033875;28;20198;-77
2021/12/24 04:13:20;;;;;;;11.70;11.00;;;8.40;99.90;;;;;;5057664;28;20811;-77
2021/12/24 04:15:50;;;;;;;11.70;10.90;;;8.40;99.90;;;;;;5063675;28;20183;-77
2021/12/24 04:18:22;;;;;;;11.93;11.23;;;8.40;99.90;;;;;;5053837;28;20211;-77
2021/12/24 04:26:19;;;;;;;11.80;11.10;;;8.40;99.90;;;;;;5056606;28;20569;-75
2021/12/24 04:28:46;;;;;;;12.10;11.30;;;8.40;99.90;;;;;;5065092;28;20195;-77
2021/12/24 04:31:15;;;;;;;11.47;10.77;;;8.40;99.90;;;;;;5069260;28;20195;-75
2021/12/24 04:33:47;;;;;;;11.90;11.10;;;8.40;99.90;;;;;;5068630;28;20288;-77
2021/12/24 04:36:35;;;;;;;11.73;11.03;;;8.40;99.90;;;;;;5070260;28;20202;-76
2021/12/24 04:39:28;;;;;;;11.57;10.87;;;8.40;99.90;;;;;;5066741;28;20471;-76
2021/12/24 04:53:22;;;;;;;12.47;11.67;;;8.30;99.90;;;;;;5067045;28;20211;-77
2021/12/24 05:01:32;;;;;;;11.93;11.23;;;8.30;99.90;;;;;;5063063;28;20194;-77
2021/12/24 05:04:03;;;;;;;12.10;11.20;;;8.40;99.90;;;;;;5058950;28;20234;-77
2021/12/24 05:06:32;;;;;;;12.00;11.10;;;8.40;99.90;;;;;;5051504;28;20571;-76
2021/12/24 05:09:06;;;;;;;11.70;11.00;;;8.30;99.90;;;;;;5054815;28;20675;-76
2021/12/24 05:11:34;;;;;;;12.07;11.30;;;8.40;99.90;;;;;;5058734;28;20210;-77
2021/12/24 05:14:01;;;;;;;12.03;11.20;;;8.40;99.90;;;;;;5061725;28;20253;-76
2021/12/24 05:16:47;;;;;;;11.63;10.73;;;8.40;99.90;;;;;;5056802;28;20200;-76
2021/12/24 05:22:38;;;;;;;12.07;11.27;;;8.40;99.90;;;;;;5059933;28;20225;-77
2021/12/24 05:25:10;;;;;;;11.83;11.13;;;8.40;99.90;;;;;;5060772;28;20202;-76
2021/12/24 05:27:39;;;;;;;11.87;11.07;;;8.40;99.90;;;;;;5065523;28;20198;-76
2021/12/24 05:30:07;;;;;;;11.63;10.83;;;8.50;99.90;;;;;;5054948;28;20562;-76
2021/12/24 05:32:35;;;;;;;12.07;11.37;;;8.50;99.90;;;;;;5063243;28;20593;-78
2021/12/24 05:35:04;;;;;;;12.97;12.07;;;8.50;99.90;;;;;;5063543;28;20205;-78
2021/12/24 05:37:34;;;;;;;11.53;10.83;;;8.50;99.90;;;;;;5058880;28;20699;-77
2021/12/24 05:40:02;;;;;;;12.37;11.37;;;8.50;99.90;;;;;;5051476;28;20219;-76
2021/12/24 05:42:32;;;;;;;11.73;10.93;;;8.50;99.90;;;;;;5063452;28;20191;-76
2021/12/24 05:45:04;;;;;;;11.13;10.43;;;8.50;99.90;;;;;;5057344;28;20667;-76
2021/12/24 05:48:08;;;;;;;11.47;10.77;;;8.50;99.90;;;;;;5061146;28;20697;-76
2021/12/24 05:50:37;;;;;;;11.43;10.73;;;8.50;99.90;;;;;;5067014;28;20201;-76
2021/12/24 05:53:39;;;;;;;11.43;10.73;;;8.60;99.90;;;;;;5041085;28;20274;-76
2021/12/24 05:56:12;;;;;;;11.57;10.87;;;8.50;99.90;;;;;;5054146;28;20293;-76
2021/12/24 05:58:43;;;;;;;11.63;10.93;;;8.50;99.90;;;;;;5058660;28;20225;-76
2021/12/24 06:01:10;;;;;;;11.33;10.43;;;8.60;99.90;;;;;;5064374;28;20652;-77
2021/12/24 06:03:45;;;;;;;11.23;10.53;;;8.60;99.90;;;;;;5065334;28;20252;-76
2021/12/24 06:06:14;;;;;;;11.77;11.07;;;8.60;99.90;;;;;;5058006;28;20195;-76
2021/12/24 06:08:41;;;;;;;11.87;11.17;;;8.60;99.90;;;;;;5065612;28;20198;-76
2021/12/24 06:11:08;;;;;;;11.63;10.83;;;8.60;99.90;;;;;;5053635;28;20702;-77
2021/12/24 06:13:36;;;;;;;11.47;10.67;;;8.60;99.90;;;;;;5069336;28;20222;-76
2021/12/24 06:16:05;;;;;;;11.60;10.80;;;8.60;99.90;;;;;;5056066;28;20207;-78
2021/12/24 06:18:32;;;;;;;11.50;10.80;;;8.60;99.90;;;;;;5064015;28;20228;-77
2021/12/24 06:21:02;;;;;;;11.27;10.57;;;8.60;99.90;;;;;;5061463;28;20202;-77
2021/12/24 06:23:30;;;;;;;11.37;10.67;;;8.60;99.90;;;;;;5065481;28;20727;-76
2021/12/24 06:25:59;;;;;;;11.03;10.33;;;8.60;99.90;;;;;;5056829;28;20633;-76
2021/12/24 06:28:27;;;;;;;11.53;10.83;;;8.50;99.90;;;;;;5060505;28;20216;-77
2021/12/24 06:30:54;;;;;;;11.30;10.60;;;8.50;99.90;;;;;;5059713;28;20198;-77
2021/12/24 06:33:21;;;;;;;11.70;10.90;;;8.50;99.90;;;;;;5061653;28;20591;-77
2021/12/24 06:35:48;;;;;;;11.33;10.63;;;8.50;99.90;;;;;;5060955;28;20545;-78
2021/12/24 06:38:15;;;;;;;11.80;11.10;;;8.50;99.90;;;;;;5062811;28;20237;-79
2021/12/24 06:40:43;;;;;;;11.67;10.87;;;8.40;99.90;;;;;;5055232;28;20204;-77
2021/12/24 06:43:10;;;;;;;11.27;10.50;;;8.40;99.90;;;;;;5057573;28;20221;-77
2021/12/24 06:45:37;;;;;;;11.20;10.50;;;8.40;99.90;;;;;;5070233;28;20205;-77
2021/12/24 06:48:05;;;;;;;11.70;10.80;;;8.40;99.90;;;;;;5052370;28;20694;-76
2021/12/24 06:50:34;;;;;;;11.60;10.90;;;8.40;99.90;;;;;;5059052;28;20202;-76
2021/12/24 06:53:01;;;;;;;11.57;10.80;;;8.40;99.90;;;;;;5061823;28;20233;-77
2021/12/24 06:55:29;;;;;;;11.80;11.00;;;8.30;99.90;;;;;;5062559;28;20191;-77
2021/12/24 06:58:02;;;;;;;12.10;11.30;;;8.40;99.90;;;;;;5061437;28;20690;-76
2021/12/24 07:00:29;;;;;;;11.77;11.07;;;8.30;99.90;;;;;;5063229;28;20218;-77
2021/12/24 07:02:56;;;;;;;11.83;11.03;;;8.40;99.90;;;;;;5070074;28;20225;-77
2021/12/24 07:05:23;;;;;;;11.63;10.83;;;8.40;99.90;;;;;;5060778;28;20293;-76
2021/12/24 07:07:50;;;;;;;11.63;10.83;;;8.30;99.90;;;;;;5059545;28;20252;-76
2021/12/24 07:10:17;;;;;;;12.40;11.50;;;8.40;99.90;;;;;;5057966;28;20203;-76
2021/12/24 07:12:44;;;;;;;12.77;11.77;;;8.30;99.90;;;;;;5062862;28;20217;-76
2021/12/24 07:15:12;;;;;;;12.77;11.90;;;8.40;99.90;;;;;;5056761;28;20210;-76
2021/12/24 07:17:39;;;;;;;12.20;11.20;;;8.40;99.90;;;;;;5057008;28;20210;-77
2021/12/24 07:20:07;;;;;;;12.53;11.63;;;8.30;99.90;;;;;;5054047;28;20310;-79
2021/12/24 07:22:33;;;;;;;12.37;11.47;;;8.30;99.90;;;;;;5064377;28;20199;-76
2021/12/24 07:25:00;;;;;;;13.00;12.00;;;8.30;99.90;;;;;;5058517;28;20202;-77
2021/12/24 07:27:27;;;;;;;12.57;11.77;;;8.40;99.90;;;;;;5065536;28;20214;-76
2021/12/24 07:29:54;;;;;;;12.50;11.50;;;8.40;99.90;;;;;;5054518;28;20208;-76
2021/12/24 07:32:22;;;;;;;12.60;11.80;;;8.40;99.90;;;;;;5060458;28;20204;-76
2021/12/24 07:34:49;;;;;;;13.00;12.10;;;8.40;99.90;;;;;;5060676;28;20211;-76
2021/12/24 07:37:16;;;;;;;12.60;11.80;;;8.40;99.90;;;;;;5058737;28;20592;-76
2021/12/24 07:39:43;;;;;;;12.97;12.17;;;8.40;99.90;;;;;;5065510;28;20214;-76
2021/12/24 07:42:10;;;;;;;12.83;11.93;;;8.40;99.90;;;;;;5056381;28;20206;-75
2021/12/24 07:44:37;;;;;;;12.77;11.97;;;8.40;99.90;;;;;;5050131;28;20662;-76
2021/12/24 07:47:07;;;;;;;12.90;11.90;;;8.40;99.90;;;;;;5052336;28;20198;-78
2021/12/24 07:49:38;;;;;;;12.87;11.77;;;8.40;99.90;;;;;;5057883;28;20191;-77
2021/12/24 07:52:09;;;;;;;12.67;11.77;;;8.40;99.90;;;;;;5071207;28;20663;-78
2021/12/24 07:54:38;;;;;;;12.73;11.93;;;8.40;99.90;;;;;;5056185;28;20222;-77
2021/12/24 07:57:06;;;;;;;13.10;12.00;;;8.40;99.90;;;;;;5058526;28;20198;-77
2021/12/24 07:59:36;;;;;;;11.93;11.13;;;8.40;99.90;;;;;;5057254;28;20659;-76
2021/12/24 08:02:03;;;;;;;12.10;11.10;;;8.40;99.90;;;;;;5053636;28;20198;-77
2021/12/24 08:04:31;;;;;;;12.23;11.40;;;8.40;99.90;;;;;;5054071;28;20226;-77
2021/12/24 08:07:01;;;;;;;12.40;11.50;;;8.40;99.90;;;;;;5056405;28;20218;-78
2021/12/24 08:09:29;;;;;;;12.10;11.30;;;8.40;99.90;;;;;;5056058;28;20191;-77
2021/12/24 08:11:55;;;;;;;12.20;11.30;;;8.40;99.90;;;;;;5052732;28;20191;-75
2021/12/24 08:14:22;;;;;;;12.40;11.40;;;8.40;99.90;;;;;;5054331;28;20217;-75
2021/12/24 08:16:49;;;;;;;12.20;11.30;;;8.40;99.90;;;;;;5055490;28;20203;-75
2021/12/24 08:19:18;;;;;;;12.40;11.60;;;8.40;99.90;;;;;;5053112;28;20222;-75
2021/12/24 08:21:46;;;;;;;12.43;11.53;;;8.40;99.90;;;;;;5052496;28;20210;-75
2021/12/24 08:24:14;;;;;;;12.63;11.83;;;8.40;99.90;;;;;;5053514;28;20250;-75
2021/12/24 08:26:41;;;;;;;11.83;11.03;;;8.40;99.90;;;;;;5056901;28;20203;-75
2021/12/24 08:29:09;;;;;;;12.70;11.80;;;8.40;99.90;;;;;;5052801;28;20191;-75
2021/12/24 08:31:36;;;;;;;13.10;12.20;;;8.30;99.90;;;;;;5052087;28;20191;-77
2021/12/24 08:34:05;;;;;;;13.00;12.10;;;8.30;99.90;;;;;;5055392;28;20223;-75
2021/12/24 08:36:32;;;;;;;12.50;11.67;;;8.30;99.90;;;;;;5052552;28;20195;-75
2021/12/24 08:38:59;;;;;;;12.50;11.60;;;8.30;99.90;;;;;;5056348;28;20207;-76
2021/12/24 08:41:28;;;;;;;13.07;12.17;;;8.30;99.90;;;;;;5053679;28;20685;-75
2021/12/24 08:43:55;;;;;;;12.63;11.73;;;8.30;99.90;;;;;;5056932;28;20219;-77
2021/12/24 08:46:22;;;;;;;12.70;11.70;;;8.40;99.90;;;;;;5052928;28;20191;-76
2021/12/24 08:48:50;;;;;;;12.93;11.93;;;8.40;99.90;;;;;;5054329;28;20195;-76
2021/12/24 08:51:17;;;;;;;13.07;12.17;;;8.40;99.90;;;;;;5063690;28;21518;-76
2021/12/24 08:53:44;;;;;;;13.00;12.10;;;8.40;99.90;;;;;;5055543;28;20219;-76
2021/12/24 08:56:11;;;;;;;13.33;12.43;;;8.40;99.90;;;;;;5064302;28;20198;-76
2021/12/24 08:58:39;;;;;;;13.67;12.67;;;8.40;99.90;;;;;;5058186;28;20593;-76
2021/12/24 09:01:07;;;;;;;12.70;11.70;;;8.40;99.90;;;;;;5056994;28;20222;-76
2021/12/24 09:03:35;;;;;;;12.13;11.30;;;8.50;99.90;;;;;;5058120;28;20230;-76
2021/12/24 09:06:01;;;;;;;12.77;11.97;;;8.50;99.90;;;;;;5054957;28;20577;-76
2021/12/24 09:08:28;;;;;;;12.73;11.80;;;8.50;99.90;;;;;;5056133;28;20217;-76
2021/12/24 09:10:55;;;;;;;12.13;11.33;;;8.50;99.90;;;;;;5056371;28;20202;-76
2021/12/24 09:13:22;;;;;;;12.60;11.73;;;8.50;99.90;;;;;;5058191;28;20229;-77
2021/12/24 09:15:53;;;;;;;12.43;11.63;;;8.50;99.90;;;;;;5059840;28;20648;-77
2021/12/24 09:18:20;;;;;;;12.07;11.27;;;8.50;99.90;;;;;;5059650;28;20198;-77
2021/12/24 09:20:48;;;;;;;12.30;11.50;;;8.50;99.90;;;;;;5067821;28;20269;-77
2021/12/24 09:23:15;;;;;;;12.37;11.57;;;8.50;99.90;;;;;;5053937;28;20231;-76
2021/12/24 09:25:42;;;;;;;12.63;11.83;;;8.50;99.90;;;;;;5061667;28;20247;-78
2021/12/24 09:28:09;;;;;;;12.90;12.00;;;8.50;99.90;;;;;;5059739;28;20697;-81
2021/12/24 09:30:36;;;;;;;12.40;11.60;;;8.50;99.90;;;;;;5057869;28;20217;-76
2021/12/24 09:33:05;;;;;;;13.10;12.20;;;8.50;99.90;;;;;;5064550;28;20217;-76
2021/12/24 09:35:33;;;;;;;12.80;12.00;;;8.50;99.90;;;;;;5061228;28;20195;-78
2021/12/24 09:38:02;;;;;;;13.07;12.17;;;8.50;99.90;;;;;;5058742;28;20724;-78
2021/12/24 09:40:30;;;;;;;12.70;11.70;;;8.50;99.90;;;;;;5051533;28;20219;-80
2021/12/24 09:42:57;;;;;;;12.67;11.80;;;8.50;99.90;;;;;;5052635;28;20234;-79
2021/12/24 09:45:24;;;;;;;12.60;11.80;;;8.50;99.90;;;;;;5055117;28;20603;-79
2021/12/24 09:47:51;;;;;;;12.80;11.90;;;8.50;99.90;;;;;;5053107;28;20684;-78
2021/12/24 09:50:23;;;;;;;11.77;11.00;;;8.50;99.90;;;;;;5051819;28;20217;-78
2021/12/24 09:52:50;;;;;;;12.17;11.37;;;8.50;99.90;;;;;;5053731;28;20234;-78
2021/12/24 09:55:20;;;;;;;12.30;11.50;;;8.50;99.90;;;;;;5058758;28;20207;-77
2021/12/24 09:57:48;;;;;;;12.67;11.73;;;8.50;99.90;;;;;;5054758;28;20198;-75
2021/12/24 10:00:18;;;;;;;12.20;11.40;;;8.50;99.90;;;;;;5063212;28;20226;-75
2021/12/24 10:02:48;;;;;;;11.70;11.00;;;8.50;99.90;;;;;;5060667;28;20241;-76
2021/12/24 10:05:35;;;;;;;11.97;11.17;;;8.50;99.90;;;;;;5056374;28;20242;-76
2021/12/24 10:08:06;;;;;;;12.60;11.80;;;8.50;99.90;;;;;;5062410;28;20202;-75
2021/12/24 10:10:33;;;;;;;12.63;11.83;;;8.50;99.90;;;;;;5051609;28;20193;-75
2021/12/24 10:13:26;;;;;;;12.93;12.03;;;8.50;99.90;;;;;;5051589;28;20226;-75
2021/12/24 10:15:54;;;;;;;12.87;11.97;;;8.50;99.90;;;;;;5060025;28;20197;-76
2021/12/24 10:18:33;;;;;;;12.87;11.90;;;8.50;99.90;;;;;;5051518;28;20674;-76
2021/12/24 10:21:08;;;;;;;12.47;11.67;;;8.40;99.90;;;;;;5050837;28;20222;-76
2021/12/24 10:23:41;;;;;;;12.37;11.53;;;8.40;99.90;;;;;;5059210;28;20214;-75
2021/12/24 10:26:17;;;;;;;12.23;11.43;;;8.40;99.90;;;;;;5059729;28;20593;-76
2021/12/24 10:28:59;;;;;;;12.53;11.73;;;8.40;99.90;;;;;;5062329;28;20210;-76
2021/12/24 10:31:28;;;;;;;12.23;11.33;;;8.40;99.90;;;;;;5058547;28;20199;-76
2021/12/24 10:34:16;;;;;;;12.50;11.70;;;8.40;99.90;;;;;;5059910;28;20221;-75
2021/12/24 10:37:22;;;;;;;12.70;11.80;;;8.40;99.90;;;;;;5059586;28;20194;-76
2021/12/24 10:39:51;;;;;;;11.77;11.07;;;8.40;99.90;;;;;;5057590;28;20230;-76
2021/12/24 10:42:22;;;;;;;12.23;11.43;;;8.40;99.90;;;;;;5058452;28;20623;-75
2021/12/24 10:44:51;;;;;;;12.20;11.40;;;8.40;99.90;;;;;;5061055;28;20204;-75
2021/12/24 10:47:20;;;;;;;12.67;11.87;;;8.40;99.90;;;;;;5058242;28;20694;-76
2021/12/24 10:50:13;;;;;;;12.03;11.30;;;8.40;99.90;;;;;;5063053;28;20209;-76
2021/12/24 10:52:58;;;;;;;11.60;10.90;;;8.40;99.90;;;;;;5061065;28;20218;-76
2021/12/24 10:55:27;;;;;;;11.90;11.20;;;8.40;99.90;;;;;;5063810;28;20267;-75
2021/12/24 10:57:56;;;;;;;12.30;11.50;;;8.40;99.90;;;;;;5056227;28;20213;-76
2021/12/24 11:00:26;;;;;;;12.13;11.43;;;8.40;99.90;;;;;;5063270;28;20223;-76
2021/12/24 11:02:55;;;;;;;12.60;11.80;;;8.40;99.90;;;;;;5057360;28;20211;-75
2021/12/24 11:05:41;;;;;;;12.30;11.50;;;8.40;99.90;;;;;;5063894;28;20207;-75
2021/12/24 11:08:12;;;;;;;12.23;11.53;;;8.50;99.90;;;;;;5064204;28;20561;-76
2021/12/24 11:10:40;;;;;;;12.20;11.50;;;8.40;99.90;;;;;;5061398;28;20203;-76
2021/12/24 11:13:12;;;;;;;12.17;11.47;;;8.40;99.90;;;;;;5062175;28;20220;-75
2021/12/24 11:15:42;;;;;;;12.90;12.00;;;8.50;99.90;;;;;;5060480;28;20661;-75
2021/12/24 11:18:15;;;;;;;12.00;11.27;;;8.40;99.90;;;;;;5060734;28;20203;-75
2021/12/24 11:20:42;;;;;;;12.20;11.40;;;8.50;99.90;;;;;;5062893;28;20215;-75
2021/12/24 11:23:12;;;;;;;12.80;12.00;;;8.50;99.90;;;;;;5066732;28;20711;-75
2021/12/24 11:25:41;;;;;;;13.00;12.20;;;8.50;99.90;;;;;;5062645;28;20266;-76
2021/12/24 11:28:09;;;;;;;13.37;12.47;;;8.50;99.90;;;;;;5061756;28;20197;-76
2021/12/24 11:30:41;;;;;;;13.40;12.40;;;8.50;99.90;;;;;;5061651;28;20198;-75
2021/12/24 11:33:08;;;;;;;13.10;12.20;;;8.50;99.90;;;;;;5065807;28;20218;-75
2021/12/24 11:35:35;;;;;;;13.43;12.60;;;8.40;99.90;;;;;;5064423;28;20199;-76
2021/12/24 11:38:02;;;;;;;14.03;13.03;;;8.50;99.90;;;;;;5063886;28;20365;-75
2021/12/24 11:40:31;;;;;;;14.50;13.50;;;8.50;99.90;;;;;;5062919;28;20225;-75
2021/12/24 11:43:02;;;;;;;14.10;13.10;;;8.50;99.90;;;;;;5065058;28;20714;-76
2021/12/24 11:45:30;;;;;;;13.67;12.67;;;8.60;99.90;;;;;;5062892;28;20195;-75
2021/12/24 11:47:58;;;;;;;13.17;12.27;;;8.60;99.90;;;;;;5067381;28;20202;-76
2021/12/24 11:50:27;;;;;;;14.23;13.13;;;8.70;99.90;;;;;;5062235;28;20192;-76
2021/12/24 11:52:56;;;;;;;13.37;12.53;;;8.70;99.90;;;;;;5066268;28;20226;-76
2021/12/24 11:55:25;;;;;;;13.23;12.30;;;8.70;99.90;;;;;;5065554;28;20577;-75
2021/12/24 11:58:00;;;;;;;13.67;12.60;;;8.80;99.90;;;;;;5065890;28;20202;-76
2021/12/24 12:00:31;;;;;;;13.70;12.80;;;8.80;99.90;;;;;;5062434;28;20206;-76
2021/12/24 12:02:59;;;;;;;12.97;12.13;;;8.80;99.90;;;;;;5064201;28;20233;-76
2021/12/24 12:05:32;;;;;;;13.10;12.30;;;8.90;99.90;;;;;;5058078;28;20205;-76
2021/12/24 12:08:39;;;;;;;13.30;12.40;;;8.90;99.90;;;;;;5061086;28;20241;-75
2021/12/24 12:11:19;;;;;;;12.87;12.07;;;8.90;99.90;;;;;;5063353;28;20230;-76
2021/12/24 12:13:55;;;;;;;13.03;12.13;;;8.90;99.90;;;;;;5063642;28;20721;-76
2021/12/24 12:16:24;;;;;;;13.03;12.17;;;8.90;99.90;;;;;;5067273;28;20186;-76
2021/12/24 12:19:11;;;;;;;13.43;12.53;;;8.80;99.90;;;;;;5066292;28;20190;-75
2021/12/24 12:21:40;;;;;;;13.50;12.50;;;8.80;99.90;;;;;;5065204;28;20203;-75
2021/12/24 12:27:02;;;;;;;13.40;12.50;;;8.80;99.90;;;;;;5062002;28;20195;-76
2021/12/24 12:29:33;;;;;;;13.43;12.63;;;8.80;99.90;;;;;;5065212;28;20234;-76
2021/12/24 12:32:26;;;;;;;13.57;12.73;;;8.80;99.90;;;;;;5064194;28;20646;-76
2021/12/24 12:35:02;;;;;;;13.20;12.33;;;8.80;99.90;;;;;;5065029;28;20194;-75
2021/12/24 12:37:32;;;;;;;13.60;12.80;;;8.70;99.90;;;;;;5053338;28;20195;-76
2021/12/24 12:40:05;;;;;;;13.80;12.90;;;8.70;99.90;;;;;;5060811;28;20203;-75
2021/12/24 12:43:08;;;;;;;13.20;12.23;;;8.80;99.90;;;;;;5052752;28;20211;-75
2021/12/24 12:46:00;;;;;;;12.10;11.30;;;8.80;99.90;;;;;;5058319;28;20739;-75
2021/12/24 12:48:42;;;;;;;12.43;11.53;;;8.80;99.90;;;;;;5056682;28;20668;-76
2021/12/24 12:51:09;;;;;;;12.93;12.13;;;8.80;99.90;;;;;;5064131;28;20198;-76
2021/12/24 12:53:40;;;;;;;13.03;12.23;;;8.80;99.90;;;;;;5061499;28;20218;-75
2021/12/24 12:56:17;;;;;;;13.80;12.80;;;8.80;99.90;;;;;;5064581;28;20207;-75
2021/12/24 12:58:46;;;;;;;13.40;12.50;;;8.80;99.90;;;;;;5067112;28;20191;-75
2021/12/24 13:01:17;;;;;;;13.03;12.10;;;8.80;99.90;;;;;;5063201;28;20599;-76
2021/12/24 13:04:12;;;;;;;12.33;11.60;;;8.90;99.90;;;;;;5061487;28;20219;-75
2021/12/24 13:07:02;;;;;;;12.60;11.80;;;8.80;99.90;;;;;;5064020;28;20190;-76
2021/12/24 13:09:36;;;;;;;12.20;11.40;;;8.90;99.90;;;;;;5051231;28;20690;-76
2021/12/24 13:12:04;;;;;;;11.83;11.13;;;8.80;99.90;;;;;;5062278;28;20200;-75
2021/12/24 13:14:35;;;;;;;12.13;11.30;;;8.90;99.90;;;;;;5067841;28;20592;-76
2021/12/24 13:22:37;;;;;;;12.27;11.57;;;8.90;99.90;;;;;;5041741;28;20230;-74
2021/12/24 13:25:10;;;;;;;12.20;11.40;;;8.90;99.90;;;;;;5051730;28;20249;-75
2021/12/24 13:27:39;;;;;;;12.27;11.50;;;8.90;99.90;;;;;;5060866;28;20179;-74
2021/12/24 13:30:14;;;;;;;11.87;11.17;;;8.90;99.90;;;;;;5061327;28;20698;-74
2021/12/24 13:32:46;;;;;;;11.90;11.20;;;9.00;99.90;;;;;;5067008;28;20213;-74
2021/12/24 13:35:13;;;;;;;11.70;11.00;;;9.00;99.90;;;;;;5062285;28;20202;-74
2021/12/24 13:37:45;;;;;;;12.03;11.30;;;9.00;99.90;;;;;;5068016;28;20203;-74
2021/12/24 13:40:15;;;;;;;12.20;11.40;;;9.10;99.90;;;;;;5066147;28;20297;-74
2021/12/24 13:42:44;;;;;;;12.30;11.50;;;9.00;99.90;;;;;;5061607;28;20230;-74
2021/12/24 13:45:11;;;;;;;11.90;11.20;;;9.10;99.90;;;;;;5061589;28;20206;-74
2021/12/24 13:47:55;;;;;;;12.60;11.80;;;9.10;99.90;;;;;;5062580;28;20277;-75
2021/12/24 13:55:57;;;;;;;12.30;11.47;;;9.10;99.90;;;;;;5063429;28;20683;-74
2021/12/24 13:58:24;;;;;;;12.00;11.30;;;9.10;99.90;;;;;;5067887;28;20567;-77
2021/12/24 14:00:54;;;;;;;12.33;11.43;;;9.10;99.90;;;;;;5060341;28;20219;-74
2021/12/24 14:03:24;;;;;;;11.97;11.27;;;9.10;99.90;;;;;;5061224;28;20234;-74
2021/12/24 14:05:55;;;;;;;11.90;11.20;;;9.10;99.90;;;;;;5062253;28;20667;-74
2021/12/24 14:08:24;;;;;;;11.43;10.73;;;9.10;99.90;;;;;;5059762;28;20304;-74
2021/12/24 14:11:07;;;;;;;11.50;10.80;;;9.10;99.90;;;;;;5060237;28;20687;-74
2021/12/24 14:13:39;;;;;;;12.20;11.40;;;9.10;99.90;;;;;;5062166;28;20225;-74
2021/12/24 14:16:13;;;;;;;12.00;11.20;;;9.10;99.90;;;;;;5061565;28;20206;-75
2021/12/24 14:21:47;;;;;;;11.87;11.17;;;9.10;99.90;;;;;;5049216;28;20217;-74
2021/12/24 14:24:23;;;;;;;11.90;11.20;;;9.00;99.90;;;;;;5051146;28;20227;-76
2021/12/24 14:26:54;;;;;;;12.00;11.20;;;9.00;99.90;;;;;;5054705;28;20198;-76
2021/12/24 14:29:30;;;;;;;12.17;11.47;;;9.00;99.90;;;;;;5065617;28;20210;-76
2021/12/24 14:32:00;;;;;;;12.23;11.33;;;8.90;99.90;;;;;;5067181;28;20329;-77
2021/12/24 14:34:48;;;;;;;12.10;11.40;;;8.90;99.90;;;;;;5059354;28;20629;-77